< Typhoon 197824 1978 Season Typhoon 197826 >
Typhoon 197825 (PHYLLIS)
General InformationTrack Information on Google MapsDetailed Wind Information || Disaster Info.ResourceGoogle EarthGE AnimationAtom FeedGeoJSON
Detalied Best Track (Time Zone = UTC)
Year Month Day Hour Lat. Long. Pressure (hPa) Wind (kt) Class Image Chart
1978 10 15 00 13.0 163.0 1010 0 2 -- Chart
1978 10 15 06 14.3 162.5 1008 0 2 -- Chart
1978 10 15 12 14.7 161.6 1008 0 2 -- Chart
1978 10 15 18 14.8 161.2 1004 0 2 -- Chart
1978 10 16 00 15.5 160.7 1000 0 2 -- Chart
1978 10 16 06 15.9 160.3 994 40 3 -- Chart
1978 10 16 12 16.1 159.8 990 40 3 -- Chart
1978 10 16 18 16.4 159.2 985 45 3 -- Chart
1978 10 17 00 16.9 158.5 980 50 4 -- Chart
1978 10 17 06 17.5 158.0 980 55 4 -- Chart
1978 10 17 12 18.2 157.3 970 55 4 -- Chart
1978 10 17 18 19.0 156.6 965 65 5 -- Chart
1978 10 18 00 19.6 155.7 955 70 5 -- Chart
1978 10 18 06 20.5 155.3 955 75 5 -- Chart
1978 10 18 12 21.0 155.3 955 80 5 -- Chart
1978 10 18 18 21.6 155.3 955 80 5 -- Chart
1978 10 19 00 22.1 155.3 955 80 5 -- Chart
1978 10 19 06 22.5 155.4 955 80 5 -- Chart
1978 10 19 12 23.1 155.8 955 80 5 -- Chart
1978 10 19 18 23.5 155.7 955 80 5 -- Chart
1978 10 20 00 23.9 155.4 955 80 5 -- Chart
1978 10 20 06 24.5 155.0 955 80 5 -- Chart
1978 10 20 12 25.4 154.3 955 70 5 -- Chart
1978 10 20 18 26.2 153.7 955 70 5 -- Chart
1978 10 21 00 27.0 153.3 955 70 5 -- Chart
1978 10 21 06 27.8 153.8 955 70 5 -- Chart
1978 10 21 12 28.8 154.5 955 70 5 -- Chart
1978 10 21 18 30.3 156.6 960 65 5 -- Chart
1978 10 22 00 32.5 159.7 965 60 4 -- Chart
1978 10 22 06 35.0 164.0 970 50 4 -- Chart
1978 10 22 12 38.5 168.5 975 50 4 -- Chart
1978 10 22 18 41.5 173.2 980 45 3 -- Chart
1978 10 23 00 46.0 179.0 980 0 6 -- Chart
Japan Meteorological Agency Best Track Data | Correction Date : 1992-10-21
< Typhoon 197824 1978 Season Typhoon 197826 >

Help